createdAt,value
2023-05-07T00:01:00.507Z,64.42
2023-05-07T00:03:46.312Z,64.37
2023-05-07T00:06:33.519Z,64.46
2023-05-07T00:09:19.035Z,64.60
2023-05-07T00:12:04.511Z,64.24
2023-05-07T00:14:50.007Z,64.13
2023-05-07T00:17:35.462Z,64.48
2023-05-07T00:20:20.736Z,64.83
2023-05-07T00:23:06.185Z,65.30
2023-05-07T00:25:51.496Z,65.59
2023-05-07T00:28:36.972Z,65.36
2023-05-07T00:31:22.498Z,65.55
2023-05-07T00:34:07.949Z,65.82
2023-05-07T00:36:53.363Z,65.71
2023-05-07T00:39:38.564Z,65.94
2023-05-07T00:42:25.084Z,65.81
2023-05-07T00:45:11.763Z,65.51
2023-05-07T00:48:00.750Z,65.87
2023-05-07T00:50:46.826Z,65.64
2023-05-07T00:53:32.703Z,65.53
2023-05-07T00:56:18.229Z,65.52
2023-05-07T00:59:04.329Z,65.92
2023-05-07T01:01:49.795Z,65.54
2023-05-07T01:04:36.229Z,65.77
2023-05-07T01:07:23.760Z,65.65
2023-05-07T01:10:10.195Z,65.32
2023-05-07T01:12:56.336Z,65.10
2023-05-07T01:15:42.175Z,65.11
2023-05-07T01:18:28.060Z,65.03
2023-05-07T01:21:17.671Z,64.83
2023-05-07T01:24:03.747Z,65.11
2023-05-07T01:26:50.825Z,64.90
2023-05-07T01:29:37.244Z,64.90
2023-05-07T01:32:36.895Z,65.04
2023-05-07T01:35:27.990Z,65.11
2023-05-07T01:38:13.749Z,64.93
2023-05-07T01:40:59.391Z,65.25
2023-05-07T01:43:45.740Z,65.73
2023-05-07T01:46:33.156Z,65.93
2023-05-07T01:49:19.658Z,65.60
2023-05-07T01:52:05.078Z,65.79
2023-05-07T01:54:50.532Z,65.63
2023-05-07T01:57:36.410Z,65.45
2023-05-07T02:00:22.398Z,65.41
2023-05-07T02:03:07.960Z,64.85
2023-05-07T02:06:01.344Z,64.11
2023-05-07T02:08:53.341Z,64.22
2023-05-07T02:11:39.256Z,63.84
2023-05-07T02:14:24.531Z,63.86
2023-05-07T02:17:09.908Z,63.53
2023-05-07T02:19:55.199Z,63.30
2023-05-07T02:22:40.667Z,63.33
2023-05-07T02:25:26.032Z,63.36
2023-05-07T02:28:11.238Z,63.13
2023-05-07T02:31:06.934Z,63.02
2023-05-07T02:33:53.249Z,62.67
2023-05-07T02:36:38.675Z,62.80
2023-05-07T02:39:29.548Z,62.43
2023-05-07T02:42:15.342Z,62.74
2023-05-07T02:45:01.202Z,62.46
2023-05-07T02:47:48.051Z,61.22
2023-05-07T02:50:33.612Z,62.05
2023-05-07T02:53:19.604Z,61.08
2023-05-07T02:56:06.812Z,61.15
2023-05-07T02:58:52.432Z,61.15
2023-05-07T03:01:40.424Z,61.21
2023-05-07T03:04:27.809Z,60.31
2023-05-07T03:07:13.688Z,60.32
2023-05-07T03:09:59.188Z,59.81
2023-05-07T03:12:44.671Z,60.36
2023-05-07T03:15:34.556Z,59.45
2023-05-07T03:18:20.542Z,58.91
2023-05-07T03:21:06.283Z,59.68
2023-05-07T03:23:52.178Z,59.94
2023-05-07T03:26:38.056Z,59.95
2023-05-07T03:29:23.292Z,60.02
2023-05-07T03:32:08.751Z,59.62
2023-05-07T03:34:54.050Z,59.07
2023-05-07T03:37:40.864Z,59.22
2023-05-07T03:40:27.781Z,59.47
2023-05-07T03:43:14.529Z,59.37
2023-05-07T03:46:04.914Z,58.62
2023-05-07T03:48:50.380Z,58.00
2023-05-07T03:51:38.375Z,58.14
2023-05-07T03:54:26.488Z,57.19
2023-05-07T03:57:11.813Z,57.37
2023-05-07T03:59:57.257Z,57.58
2023-05-07T04:02:42.766Z,58.06
2023-05-07T04:05:28.629Z,58.08
2023-05-07T04:08:18.774Z,58.21
2023-05-07T04:11:08.186Z,58.30
2023-05-07T04:13:56.235Z,58.11
2023-05-07T04:16:43.065Z,58.54
2023-05-07T04:19:28.415Z,58.17
2023-05-07T04:22:14.402Z,58.39
2023-05-07T04:25:01.342Z,58.37
2023-05-07T04:27:47.073Z,58.60
2023-05-07T04:30:33.080Z,57.59
2023-05-07T04:33:18.532Z,57.95
2023-05-07T04:36:05.799Z,57.72
2023-05-07T04:38:55.820Z,57.29
2023-05-07T04:41:41.294Z,56.66
2023-05-07T04:44:28.726Z,57.57
2023-05-07T04:47:14.320Z,57.57
2023-05-07T04:49:59.948Z,56.85
2023-05-07T04:52:46.272Z,57.15
2023-05-07T04:55:32.019Z,56.45
2023-05-07T04:58:17.480Z,56.54
2023-05-07T05:01:06.132Z,56.77
2023-05-07T05:03:51.480Z,57.15
2023-05-07T05:06:39.507Z,57.53
2023-05-07T05:09:26.053Z,57.34
2023-05-07T05:12:11.467Z,57.33
2023-05-07T05:14:57.894Z,56.83
2023-05-07T05:17:43.516Z,56.63
2023-05-07T05:20:29.550Z,57.06
2023-05-07T05:23:15.248Z,57.70
2023-05-07T05:26:01.171Z,57.08
2023-05-07T05:28:50.469Z,57.68
2023-05-07T05:31:39.281Z,57.32
2023-05-07T05:34:24.536Z,57.22
2023-05-07T05:37:09.883Z,58.39
2023-05-07T05:39:56.558Z,58.43
2023-05-07T05:42:42.558Z,58.71
2023-05-07T05:45:29.471Z,59.12
2023-05-07T05:48:15.548Z,59.20
2023-05-07T05:51:01.369Z,59.44
2023-05-07T05:53:46.961Z,58.53
2023-05-07T05:56:33.277Z,59.23
2023-05-07T05:59:19.082Z,59.56
2023-05-07T06:02:04.923Z,59.26
2023-05-07T06:04:51.539Z,57.89
2023-05-07T06:07:39.273Z,57.14
2023-05-07T06:10:25.505Z,56.62
2023-05-07T06:13:11.343Z,57.00
2023-05-07T06:15:57.487Z,57.45
2023-05-07T06:18:42.965Z,57.86
2023-05-07T06:21:28.810Z,57.63
2023-05-07T06:24:14.338Z,58.03
2023-05-07T06:27:00.455Z,58.35
2023-05-07T06:29:49.458Z,58.30
2023-05-07T06:32:38.227Z,58.66
2023-05-07T06:35:25.181Z,58.98
2023-05-07T06:38:10.523Z,59.73
2023-05-07T06:40:58.151Z,59.95
2023-05-07T06:43:43.971Z,60.17
2023-05-07T06:46:50.158Z,60.77
2023-05-07T06:49:35.989Z,60.51
2023-05-07T06:52:22.168Z,60.19
2023-05-07T06:55:10.207Z,60.42
2023-05-07T06:57:55.968Z,60.39
2023-05-07T07:00:42.909Z,60.73
2023-05-07T07:03:28.268Z,61.55
2023-05-07T07:06:15.570Z,61.86
2023-05-07T07:09:01.686Z,61.37
2023-05-07T07:11:48.973Z,61.52
2023-05-07T07:14:34.266Z,61.22
2023-05-07T07:17:19.708Z,60.93
2023-05-07T07:20:05.619Z,61.05
2023-05-07T07:22:51.457Z,62.00
2023-05-07T07:25:37.275Z,62.76
2023-05-07T07:28:23.530Z,62.76
2023-05-07T07:31:09.054Z,62.92
2023-05-07T07:33:54.628Z,62.36
2023-05-07T07:36:46.224Z,62.43
2023-05-07T07:39:43.538Z,62.17
2023-05-07T07:42:30.923Z,62.62
2023-05-07T07:45:17.800Z,63.11
2023-05-07T07:48:06.691Z,62.07
2023-05-07T07:50:55.497Z,62.18
2023-05-07T07:53:42.469Z,62.10
2023-05-07T07:56:28.465Z,62.76
2023-05-07T07:59:15.982Z,62.35
2023-05-07T08:02:02.125Z,61.92
2023-05-07T08:04:52.291Z,62.13
2023-05-07T08:07:38.992Z,62.35
2023-05-07T08:10:24.328Z,62.65
2023-05-07T08:13:16.225Z,62.70
2023-05-07T08:16:01.965Z,63.21
2023-05-07T08:18:48.575Z,63.19
2023-05-07T08:21:35.896Z,63.27
2023-05-07T08:24:21.895Z,63.13
2023-05-07T08:27:07.600Z,63.43
2023-05-07T08:29:53.807Z,64.55
2023-05-07T08:32:41.995Z,64.26
2023-05-07T08:35:28.251Z,64.90
2023-05-07T08:38:14.372Z,65.05
2023-05-07T08:41:00.393Z,65.20
2023-05-07T08:43:52.467Z,65.95
2023-05-07T08:46:40.998Z,65.93
2023-05-07T08:49:26.477Z,66.34
2023-05-07T08:52:13.268Z,66.92
2023-05-07T08:55:00.147Z,67.34
2023-05-07T08:57:45.763Z,67.60
2023-05-07T09:00:33.118Z,67.65
2023-05-07T09:03:20.443Z,67.50
2023-05-07T09:06:09.152Z,67.31
2023-05-07T09:08:56.136Z,68.24
2023-05-07T09:11:44.874Z,68.38
2023-05-07T09:14:32.474Z,68.20
2023-05-07T09:17:19.536Z,68.01
2023-05-07T09:20:09.314Z,67.93
2023-05-07T09:22:57.414Z,68.09
2023-05-07T09:25:44.052Z,68.68
2023-05-07T09:28:36.767Z,68.62
2023-05-07T09:31:24.792Z,68.28
2023-05-07T09:34:13.293Z,68.12
2023-05-07T09:37:07.290Z,67.64
2023-05-07T09:39:53.864Z,67.72
2023-05-07T09:42:42.450Z,68.12
2023-05-07T09:45:29.183Z,67.77
2023-05-07T09:48:19.472Z,68.17
2023-05-07T09:51:19.224Z,67.80
2023-05-07T09:54:05.784Z,67.81
2023-05-07T09:56:54.239Z,68.18
2023-05-07T09:59:44.922Z,69.13
2023-05-07T10:02:38.088Z,69.20
2023-05-07T10:05:25.050Z,69.61
2023-05-07T10:08:13.404Z,70.17
2023-05-07T10:11:01.056Z,69.93
2023-05-07T10:13:49.064Z,70.31
2023-05-07T10:16:37.813Z,69.88
2023-05-07T10:19:30.423Z,69.89
2023-05-07T10:22:18.239Z,70.22
2023-05-07T10:25:15.305Z,69.85
2023-05-07T10:28:08.979Z,70.60
2023-05-07T10:31:08.844Z,70.88
2023-05-07T10:34:01.781Z,70.97
2023-05-07T10:36:48.415Z,71.24
2023-05-07T10:39:34.147Z,71.37
2023-05-07T10:42:20.358Z,70.93
2023-05-07T10:45:17.767Z,71.12
2023-05-07T10:48:28.872Z,70.94
2023-05-07T10:51:23.024Z,71.26
2023-05-07T10:54:16.624Z,71.62
2023-05-07T10:57:37.081Z,71.39
2023-05-07T11:00:45.862Z,71.72
2023-05-07T11:04:16.309Z,70.84
2023-05-07T11:07:10.790Z,71.06
2023-05-07T11:10:06.499Z,70.72
2023-05-07T11:13:09.816Z,70.64
2023-05-07T11:16:04.573Z,70.67
2023-05-07T11:18:57.564Z,70.56
2023-05-07T11:21:50.874Z,70.84
2023-05-07T11:24:44.324Z,71.61
2023-05-07T11:27:32.216Z,71.29
2023-05-07T11:30:20.726Z,71.16
2023-05-07T11:33:07.328Z,71.72
2023-05-07T11:35:56.133Z,71.02
2023-05-07T11:38:45.469Z,71.23
2023-05-07T11:41:36.142Z,70.67
2023-05-07T11:44:21.529Z,71.44
2023-05-07T11:47:06.872Z,71.25
2023-05-07T11:49:55.093Z,70.80
2023-05-07T11:52:41.111Z,71.43
2023-05-07T11:55:27.325Z,71.84
2023-05-07T11:58:21.539Z,71.72
2023-05-07T12:01:10.718Z,72.27
2023-05-07T12:03:56.123Z,71.88
2023-05-07T12:06:41.589Z,71.99
2023-05-07T12:09:29.192Z,71.88
2023-05-07T12:12:19.468Z,71.29
2023-05-07T12:15:05.141Z,71.73
2023-05-07T12:17:51.667Z,71.69
2023-05-07T12:20:38.437Z,71.93
2023-05-07T12:23:24.584Z,71.67
2023-05-07T12:26:10.510Z,71.42
2023-05-07T12:28:55.992Z,71.93
2023-05-07T12:31:43.102Z,72.04
2023-05-07T12:34:29.257Z,71.76
2023-05-07T12:37:14.882Z,71.50
2023-05-07T12:40:11.170Z,71.66
2023-05-07T12:42:57.349Z,72.07
2023-05-07T12:45:45.198Z,72.07
2023-05-07T12:48:30.855Z,71.55
2023-05-07T12:51:17.050Z,71.93
2023-05-07T12:54:02.615Z,72.19
2023-05-07T12:56:47.924Z,71.94
2023-05-07T12:59:33.771Z,72.46
2023-05-07T13:02:19.160Z,72.19
2023-05-07T13:05:05.040Z,72.64
2023-05-07T13:07:57.977Z,72.33
2023-05-07T13:10:43.938Z,72.69
2023-05-07T13:13:32.375Z,72.70
2023-05-07T13:16:18.283Z,72.29
2023-05-07T13:19:07.244Z,72.39
2023-05-07T13:21:52.573Z,72.33
2023-05-07T13:24:38.031Z,72.52
2023-05-07T13:27:23.537Z,72.35
2023-05-07T13:30:09.090Z,72.84
2023-05-07T13:32:56.862Z,72.59
2023-05-07T13:35:43.682Z,72.62
2023-05-07T13:38:33.437Z,72.59
2023-05-07T13:41:20.243Z,73.12
2023-05-07T13:44:05.742Z,72.69
2023-05-07T13:46:51.239Z,72.81
2023-05-07T13:49:36.754Z,72.90
2023-05-07T13:52:22.496Z,72.74
2023-05-07T13:55:08.343Z,72.88
2023-05-07T13:57:58.672Z,73.37
2023-05-07T14:00:44.915Z,73.41
2023-05-07T14:03:33.068Z,73.66
2023-05-07T14:06:18.970Z,73.76
2023-05-07T14:09:05.183Z,73.64
2023-05-07T14:11:52.319Z,73.93
2023-05-07T14:14:37.863Z,73.91
2023-05-07T14:17:26.334Z,73.45
2023-05-07T14:20:13.179Z,73.98
2023-05-07T14:22:59.245Z,73.68
2023-05-07T14:25:44.672Z,73.56
2023-05-07T14:28:30.107Z,73.44
2023-05-07T14:31:15.703Z,73.48
2023-05-07T14:34:03.319Z,73.30
2023-05-07T14:36:48.942Z,73.54
2023-05-07T14:39:34.389Z,73.10
2023-05-07T14:42:20.462Z,73.29
2023-05-07T14:45:07.055Z,73.41
2023-05-07T14:47:52.617Z,74.45
2023-05-07T14:50:37.841Z,74.31
2023-05-07T14:53:23.746Z,74.19
2023-05-07T14:56:09.551Z,73.85
2023-05-07T14:58:55.094Z,74.08
2023-05-07T15:01:43.647Z,74.26
2023-05-07T15:04:28.852Z,73.87
2023-05-07T15:07:18.574Z,73.94
2023-05-07T15:10:04.353Z,74.26
2023-05-07T15:12:49.903Z,73.66
2023-05-07T15:15:35.568Z,73.65
2023-05-07T15:18:22.853Z,73.63
2023-05-07T15:21:08.515Z,73.80
2023-05-07T15:23:54.940Z,73.87
2023-05-07T15:26:40.410Z,73.49
2023-05-07T15:29:26.061Z,73.72
2023-05-07T15:32:12.156Z,73.69
2023-05-07T15:34:57.979Z,74.00
2023-05-07T15:37:43.526Z,73.83
2023-05-07T15:40:29.459Z,74.44
2023-05-07T15:43:14.981Z,74.58
2023-05-07T15:46:01.378Z,74.44
2023-05-07T15:48:48.206Z,74.38
2023-05-07T15:51:35.950Z,74.27
2023-05-07T15:54:21.371Z,74.42
2023-05-07T15:57:10.222Z,74.52
2023-05-07T15:59:55.589Z,74.55
2023-05-07T16:02:41.021Z,74.65
2023-05-07T16:05:26.858Z,75.23
2023-05-07T16:08:12.044Z,75.24
2023-05-07T16:10:57.589Z,75.16
2023-05-07T16:13:42.840Z,75.97
2023-05-07T16:16:30.178Z,75.79
2023-05-07T16:19:15.921Z,76.28
2023-05-07T16:22:01.263Z,75.91
2023-05-07T16:24:46.820Z,76.52
2023-05-07T16:27:32.270Z,76.17
2023-05-07T16:30:17.759Z,76.57
2023-05-07T16:33:03.477Z,76.67
2023-05-07T16:35:53.240Z,76.96
2023-05-07T16:38:38.727Z,77.48
2023-05-07T16:41:24.556Z,77.26
2023-05-07T16:44:10.137Z,77.78
2023-05-07T16:46:55.581Z,77.55
2023-05-07T16:49:40.901Z,77.81
2023-05-07T16:52:30.208Z,77.63
2023-05-07T16:55:15.936Z,77.93
2023-05-07T16:58:01.642Z,77.79
2023-05-07T17:00:50.475Z,77.74
2023-05-07T17:03:36.535Z,77.37
2023-05-07T17:06:21.771Z,77.70
2023-05-07T17:09:07.235Z,78.34
2023-05-07T17:11:52.672Z,77.43
2023-05-07T17:14:38.019Z,78.21
2023-05-07T17:17:23.433Z,78.22
2023-05-07T17:20:09.253Z,78.10
2023-05-07T17:22:55.645Z,78.36
2023-05-07T17:25:45.432Z,78.40
2023-05-07T17:28:31.127Z,77.23
2023-05-07T17:31:17.486Z,77.42
2023-05-07T17:34:03.278Z,77.28
2023-05-07T17:36:48.909Z,77.34
2023-05-07T17:39:34.390Z,77.57
2023-05-07T17:42:21.446Z,77.67
2023-05-07T17:45:07.239Z,77.60
2023-05-07T17:47:52.754Z,77.73
2023-05-07T17:50:38.238Z,78.02
2023-05-07T17:53:24.705Z,77.63
2023-05-07T17:56:10.263Z,78.17
2023-05-07T17:58:59.021Z,78.33
2023-05-07T18:01:44.960Z,78.64
2023-05-07T18:04:30.351Z,79.37
2023-05-07T18:07:16.423Z,79.49
2023-05-07T18:10:02.425Z,79.58
2023-05-07T18:12:49.203Z,79.90
2023-05-07T18:15:34.914Z,79.34
2023-05-07T18:18:20.676Z,79.56
2023-05-07T18:21:06.372Z,80.13
2023-05-07T18:23:51.621Z,80.32
2023-05-07T18:26:37.910Z,79.94
2023-05-07T18:29:24.396Z,79.81
2023-05-07T18:32:10.663Z,79.94
2023-05-07T18:34:56.385Z,79.46
2023-05-07T18:37:41.769Z,79.17
2023-05-07T18:40:27.508Z,78.87
2023-05-07T18:43:13.217Z,78.97
2023-05-07T18:45:58.734Z,79.72
2023-05-07T18:48:44.705Z,79.07
2023-05-07T18:51:30.213Z,79.14
2023-05-07T18:54:16.433Z,79.07
2023-05-07T18:57:02.163Z,79.22
2023-05-07T18:59:47.566Z,78.88
2023-05-07T19:02:33.608Z,79.59
2023-05-07T19:05:19.896Z,78.69
2023-05-07T19:08:06.333Z,79.51
2023-05-07T19:10:51.938Z,78.84
2023-05-07T19:13:37.432Z,79.21
2023-05-07T19:16:23.168Z,79.34
2023-05-07T19:19:08.478Z,78.74
2023-05-07T19:21:54.086Z,79.08
2023-05-07T19:24:40.956Z,78.67
2023-05-07T19:27:26.434Z,78.98
2023-05-07T19:30:12.528Z,79.64
2023-05-07T19:33:01.687Z,79.69
2023-05-07T19:35:47.411Z,79.32
2023-05-07T19:38:33.801Z,79.55
2023-05-07T19:41:20.941Z,79.11
2023-05-07T19:44:06.427Z,79.46
2023-05-07T19:46:52.697Z,78.78
2023-05-07T19:49:38.421Z,78.82
2023-05-07T19:52:24.037Z,78.26
2023-05-07T19:55:10.366Z,78.68
2023-05-07T19:57:56.029Z,78.36
2023-05-07T20:00:43.176Z,78.68
2023-05-07T20:03:30.656Z,78.36
2023-05-07T20:06:16.483Z,77.80
2023-05-07T20:09:01.784Z,78.21
2023-05-07T20:11:47.117Z,78.35
2023-05-07T20:14:32.762Z,77.99
2023-05-07T20:17:19.707Z,78.08
2023-05-07T20:20:05.862Z,78.05
2023-05-07T20:22:51.131Z,77.59
2023-05-07T20:25:36.945Z,77.75
2023-05-07T20:28:22.224Z,77.50
2023-05-07T20:31:07.589Z,77.58
2023-05-07T20:33:53.112Z,77.63
2023-05-07T20:36:38.772Z,78.03
2023-05-07T20:39:24.716Z,77.95
2023-05-07T20:42:10.244Z,77.83
2023-05-07T20:44:56.244Z,77.81
2023-05-07T20:47:42.275Z,78.25
2023-05-07T20:50:27.889Z,77.81
2023-05-07T20:53:13.366Z,78.10
2023-05-07T20:55:59.446Z,77.98
2023-05-07T20:58:45.149Z,78.24
2023-05-07T21:01:30.639Z,78.18
2023-05-07T21:04:16.091Z,78.41
2023-05-07T21:07:01.727Z,78.69
2023-05-07T21:09:47.148Z,78.93
2023-05-07T21:12:32.743Z,78.40
2023-05-07T21:15:18.254Z,78.28
2023-05-07T21:18:03.895Z,78.25
2023-05-07T21:20:49.293Z,78.29
2023-05-07T21:23:34.565Z,78.69
2023-05-07T21:26:21.865Z,78.20
2023-05-07T21:29:08.936Z,78.48
2023-05-07T21:31:54.425Z,78.81
2023-05-07T21:34:39.735Z,79.03
2023-05-07T21:37:25.027Z,78.27
2023-05-07T21:40:10.981Z,78.64
2023-05-07T21:42:56.601Z,78.69
2023-05-07T21:45:42.000Z,78.50
2023-05-07T21:48:27.361Z,78.33
2023-05-07T21:51:13.378Z,78.61
2023-05-07T21:53:58.912Z,78.33
2023-05-07T21:56:44.408Z,78.80
2023-05-07T21:59:29.778Z,78.80
2023-05-07T22:02:15.059Z,78.46
2023-05-07T22:05:00.581Z,78.49
2023-05-07T22:07:46.051Z,78.53
2023-05-07T22:10:31.833Z,78.47
2023-05-07T22:13:17.393Z,78.36
2023-05-07T22:16:02.661Z,78.68
2023-05-07T22:18:49.603Z,78.14
2023-05-07T22:21:35.599Z,77.59
2023-05-07T22:24:20.889Z,77.43
2023-05-07T22:27:06.189Z,77.58
2023-05-07T22:29:51.579Z,77.82
2023-05-07T22:32:37.343Z,77.34
2023-05-07T22:35:23.796Z,77.85
2023-05-07T22:38:09.664Z,77.86
2023-05-07T22:40:54.915Z,77.88
2023-05-07T22:43:40.289Z,77.40
2023-05-07T22:46:26.166Z,77.06
2023-05-07T22:49:11.430Z,77.16
2023-05-07T22:51:56.817Z,76.65
2023-05-07T22:54:42.032Z,77.07
2023-05-07T22:57:27.450Z,76.39
2023-05-07T23:00:13.809Z,76.39
2023-05-07T23:02:59.906Z,76.47
2023-05-07T23:05:45.541Z,76.73
2023-05-07T23:08:30.915Z,76.75
2023-05-07T23:11:16.493Z,77.11
2023-05-07T23:14:01.664Z,76.20
2023-05-07T23:16:47.032Z,76.37
2023-05-07T23:19:32.963Z,76.61
2023-05-07T23:22:18.376Z,76.41
2023-05-07T23:25:04.692Z,76.50
2023-05-07T23:27:50.323Z,76.52
2023-05-07T23:30:35.900Z,77.24
2023-05-07T23:33:21.316Z,77.35
2023-05-07T23:36:07.962Z,78.07
2023-05-07T23:38:53.608Z,77.41
2023-05-07T23:41:38.956Z,77.27
2023-05-07T23:44:24.494Z,77.02
2023-05-07T23:47:09.877Z,76.99
2023-05-07T23:49:55.114Z,76.55
2023-05-07T23:52:40.488Z,75.55
2023-05-07T23:55:25.709Z,75.81
2023-05-07T23:58:12.097Z,76.29
